sensor_id;sensor_type;location;lat;lon;timestamp;pressure;altitude;pressure_sealevel;temperature
58307;BMP280;44116;50.884;4.768;2023-04-24T00:03:17;99620.0;;;8.1
58307;BMP280;44116;50.884;4.768;2023-04-24T00:05:17;99620.0;;;8.1
58307;BMP280;44116;50.884;4.768;2023-04-24T00:07:17;99620.0;;;8.1
58307;BMP280;44116;50.884;4.768;2023-04-24T00:09:16;99620.0;;;8.1
58307;BMP280;44116;50.884;4.768;2023-04-24T00:11:16;99620.0;;;8.1
58307;BMP280;44116;50.884;4.768;2023-04-24T00:13:16;99630.0;;;8.1
58307;BMP280;44116;50.884;4.768;2023-04-24T00:15:15;99630.0;;;8.1
58307;BMP280;44116;50.884;4.768;2023-04-24T00:17:15;99620.0;;;8.1
58307;BMP280;44116;50.884;4.768;2023-04-24T00:19:15;99630.0;;;8.1
58307;BMP280;44116;50.884;4.768;2023-04-24T00:21:15;99630.0;;;8.2
58307;BMP280;44116;50.884;4.768;2023-04-24T00:23:14;99630.0;;;8.2
58307;BMP280;44116;50.884;4.768;2023-04-24T00:25:14;99630.0;;;8.2
58307;BMP280;44116;50.884;4.768;2023-04-24T00:27:14;99630.0;;;8.2
58307;BMP280;44116;50.884;4.768;2023-04-24T00:29:13;99630.0;;;8.2
58307;BMP280;44116;50.884;4.768;2023-04-24T00:31:13;99630.0;;;8.2
58307;BMP280;44116;50.884;4.768;2023-04-24T00:33:13;99630.0;;;8.2
58307;BMP280;44116;50.884;4.768;2023-04-24T00:35:12;99630.0;;;8.1
58307;BMP280;44116;50.884;4.768;2023-04-24T00:37:12;99630.0;;;8.1
58307;BMP280;44116;50.884;4.768;2023-04-24T00:39:12;99640.0;;;8.1
58307;BMP280;44116;50.884;4.768;2023-04-24T00:41:11;99640.0;;;8.2
58307;BMP280;44116;50.884;4.768;2023-04-24T00:43:11;99630.0;;;8.1
58307;BMP280;44116;50.884;4.768;2023-04-24T00:45:11;99630.0;;;8.2
58307;BMP280;44116;50.884;4.768;2023-04-24T00:47:10;99630.0;;;8.2
58307;BMP280;44116;50.884;4.768;2023-04-24T00:49:10;99630.0;;;8.1
58307;BMP280;44116;50.884;4.768;2023-04-24T00:51:10;99640.0;;;8.1
58307;BMP280;44116;50.884;4.768;2023-04-24T00:53:09;99630.0;;;8.1
58307;BMP280;44116;50.884;4.768;2023-04-24T00:55:09;99640.0;;;8.1
58307;BMP280;44116;50.884;4.768;2023-04-24T00:57:09;99630.0;;;8.1
58307;BMP280;44116;50.884;4.768;2023-04-24T00:59:08;99630.0;;;8.1
58307;BMP280;44116;50.884;4.768;2023-04-24T01:01:08;99630.0;;;8.1
58307;BMP280;44116;50.884;4.768;2023-04-24T01:07:07;99620.0;;;8.0
58307;BMP280;44116;50.884;4.768;2023-04-24T01:09:07;99630.0;;;8.0
58307;BMP280;44116;50.884;4.768;2023-04-24T01:11:06;99620.0;;;7.9
58307;BMP280;44116;50.884;4.768;2023-04-24T01:13:06;99620.0;;;7.9
58307;BMP280;44116;50.884;4.768;2023-04-24T01:15:06;99620.0;;;7.9
58307;BMP280;44116;50.884;4.768;2023-04-24T01:17:05;99620.0;;;7.9
58307;BMP280;44116;50.884;4.768;2023-04-24T01:19:05;99620.0;;;7.9
58307;BMP280;44116;50.884;4.768;2023-04-24T01:21:05;99620.0;;;7.9
58307;BMP280;44116;50.884;4.768;2023-04-24T01:23:04;99620.0;;;7.9
58307;BMP280;44116;50.884;4.768;2023-04-24T01:25:04;99620.0;;;7.9
58307;BMP280;44116;50.884;4.768;2023-04-24T01:27:04;99620.0;;;7.9
58307;BMP280;44116;50.884;4.768;2023-04-24T01:31:03;99620.0;;;7.9
58307;BMP280;44116;50.884;4.768;2023-04-24T01:35:03;99620.0;;;7.9
58307;BMP280;44116;50.884;4.768;2023-04-24T01:37:02;99620.0;;;7.9
58307;BMP280;44116;50.884;4.768;2023-04-24T01:39:02;99620.0;;;7.9
58307;BMP280;44116;50.884;4.768;2023-04-24T01:41:01;99620.0;;;7.9
58307;BMP280;44116;50.884;4.768;2023-04-24T01:43:01;99630.0;;;7.9
58307;BMP280;44116;50.884;4.768;2023-04-24T01:45:02;99630.0;;;7.9
58307;BMP280;44116;50.884;4.768;2023-04-24T01:47:01;99620.0;;;7.8
58307;BMP280;44116;50.884;4.768;2023-04-24T01:49:00;99630.0;;;7.8
58307;BMP280;44116;50.884;4.768;2023-04-24T01:51:00;99620.0;;;7.8
58307;BMP280;44116;50.884;4.768;2023-04-24T01:54:59;99620.0;;;7.8
58307;BMP280;44116;50.884;4.768;2023-04-24T01:58:59;99620.0;;;7.7
58307;BMP280;44116;50.884;4.768;2023-04-24T02:00:58;99620.0;;;7.7
58307;BMP280;44116;50.884;4.768;2023-04-24T02:02:58;99620.0;;;7.6
58307;BMP280;44116;50.884;4.768;2023-04-24T02:04:57;99620.0;;;7.6
58307;BMP280;44116;50.884;4.768;2023-04-24T02:06:57;99620.0;;;7.6
58307;BMP280;44116;50.884;4.768;2023-04-24T02:08:57;99620.0;;;7.6
58307;BMP280;44116;50.884;4.768;2023-04-24T02:10:56;99620.0;;;7.7
58307;BMP280;44116;50.884;4.768;2023-04-24T02:12:56;99620.0;;;7.6
58307;BMP280;44116;50.884;4.768;2023-04-24T02:14:56;99620.0;;;7.6
58307;BMP280;44116;50.884;4.768;2023-04-24T02:18:55;99620.0;;;7.5
58307;BMP280;44116;50.884;4.768;2023-04-24T02:20:55;99620.0;;;7.5
58307;BMP280;44116;50.884;4.768;2023-04-24T02:22:54;99620.0;;;7.5
58307;BMP280;44116;50.884;4.768;2023-04-24T02:24:54;99610.0;;;7.5
58307;BMP280;44116;50.884;4.768;2023-04-24T02:26:54;99620.0;;;7.5
58307;BMP280;44116;50.884;4.768;2023-04-24T02:28:53;99610.0;;;7.5
58307;BMP280;44116;50.884;4.768;2023-04-24T02:32:53;99620.0;;;7.5
58307;BMP280;44116;50.884;4.768;2023-04-24T02:34:52;99620.0;;;7.4
58307;BMP280;44116;50.884;4.768;2023-04-24T02:36:52;99620.0;;;7.4
58307;BMP280;44116;50.884;4.768;2023-04-24T02:40:51;99620.0;;;7.4
58307;BMP280;44116;50.884;4.768;2023-04-24T02:42:51;99620.0;;;7.4
58307;BMP280;44116;50.884;4.768;2023-04-24T02:44:51;99620.0;;;7.5
58307;BMP280;44116;50.884;4.768;2023-04-24T02:46:50;99610.0;;;7.4
58307;BMP280;44116;50.884;4.768;2023-04-24T02:50:50;99610.0;;;7.4
58307;BMP280;44116;50.884;4.768;2023-04-24T02:52:49;99610.0;;;7.4
58307;BMP280;44116;50.884;4.768;2023-04-24T02:54:49;99610.0;;;7.4
58307;BMP280;44116;50.884;4.768;2023-04-24T02:56:48;99610.0;;;7.5
58307;BMP280;44116;50.884;4.768;2023-04-24T02:58:48;99610.0;;;7.4
58307;BMP280;44116;50.884;4.768;2023-04-24T03:00:48;99610.0;;;7.5
58307;BMP280;44116;50.884;4.768;2023-04-24T03:02:47;99610.0;;;7.4
58307;BMP280;44116;50.884;4.768;2023-04-24T03:04:47;99610.0;;;7.4
58307;BMP280;44116;50.884;4.768;2023-04-24T03:06:47;99620.0;;;7.4
58307;BMP280;44116;50.884;4.768;2023-04-24T03:08:46;99620.0;;;7.4
58307;BMP280;44116;50.884;4.768;2023-04-24T03:12:46;99620.0;;;7.4
58307;BMP280;44116;50.884;4.768;2023-04-24T03:14:45;99610.0;;;7.4
58307;BMP280;44116;50.884;4.768;2023-04-24T03:16:45;99620.0;;;7.4
58307;BMP280;44116;50.884;4.768;2023-04-24T03:18:45;99610.0;;;7.4
58307;BMP280;44116;50.884;4.768;2023-04-24T03:20:45;99610.0;;;7.3
58307;BMP280;44116;50.884;4.768;2023-04-24T03:22:44;99610.0;;;7.4
58307;BMP280;44116;50.884;4.768;2023-04-24T03:24:44;99610.0;;;7.3
58307;BMP280;44116;50.884;4.768;2023-04-24T03:26:43;99610.0;;;7.3
58307;BMP280;44116;50.884;4.768;2023-04-24T03:28:43;99610.0;;;7.3
58307;BMP280;44116;50.884;4.768;2023-04-24T03:30:43;99610.0;;;7.3
58307;BMP280;44116;50.884;4.768;2023-04-24T03:32:42;99610.0;;;7.3
58307;BMP280;44116;50.884;4.768;2023-04-24T03:34:42;99610.0;;;7.3
58307;BMP280;44116;50.884;4.768;2023-04-24T03:36:42;99610.0;;;7.3
58307;BMP280;44116;50.884;4.768;2023-04-24T03:38:41;99620.0;;;7.3
58307;BMP280;44116;50.884;4.768;2023-04-24T03:40:41;99610.0;;;7.3
58307;BMP280;44116;50.884;4.768;2023-04-24T03:42:41;99610.0;;;7.3
58307;BMP280;44116;50.884;4.768;2023-04-24T03:44:40;99610.0;;;7.3
58307;BMP280;44116;50.884;4.768;2023-04-24T03:46:40;99610.0;;;7.3
58307;BMP280;44116;50.884;4.768;2023-04-24T03:48:40;99610.0;;;7.2
58307;BMP280;44116;50.884;4.768;2023-04-24T03:50:39;99610.0;;;7.3
58307;BMP280;44116;50.884;4.768;2023-04-24T03:52:39;99610.0;;;7.3
58307;BMP280;44116;50.884;4.768;2023-04-24T03:54:39;99610.0;;;7.2
58307;BMP280;44116;50.884;4.768;2023-04-24T03:58:38;99610.0;;;7.3
58307;BMP280;44116;50.884;4.768;2023-04-24T04:00:39;99620.0;;;7.2
58307;BMP280;44116;50.884;4.768;2023-04-24T04:02:37;99620.0;;;7.2
58307;BMP280;44116;50.884;4.768;2023-04-24T04:04:37;99630.0;;;7.2
58307;BMP280;44116;50.884;4.768;2023-04-24T04:06:37;99640.0;;;7.3
58307;BMP280;44116;50.884;4.768;2023-04-24T04:08:36;99640.0;;;7.3
58307;BMP280;44116;50.884;4.768;2023-04-24T04:10:36;99630.0;;;7.2
58307;BMP280;44116;50.884;4.768;2023-04-24T04:14:35;99650.0;;;7.3
58307;BMP280;44116;50.884;4.768;2023-04-24T04:16:35;99640.0;;;7.3
58307;BMP280;44116;50.884;4.768;2023-04-24T04:18:34;99640.0;;;7.3
58307;BMP280;44116;50.884;4.768;2023-04-24T04:20:34;99650.0;;;7.3
58307;BMP280;44116;50.884;4.768;2023-04-24T04:22:34;99650.0;;;7.3
58307;BMP280;44116;50.884;4.768;2023-04-24T04:24:33;99650.0;;;7.3
58307;BMP280;44116;50.884;4.768;2023-04-24T04:26:33;99650.0;;;7.3
58307;BMP280;44116;50.884;4.768;2023-04-24T04:28:33;99660.0;;;7.3
58307;BMP280;44116;50.884;4.768;2023-04-24T04:30:33;99660.0;;;7.3
58307;BMP280;44116;50.884;4.768;2023-04-24T04:32:32;99670.0;;;7.3
58307;BMP280;44116;50.884;4.768;2023-04-24T04:34:32;99670.0;;;7.4
58307;BMP280;44116;50.884;4.768;2023-04-24T04:36:31;99660.0;;;7.3
58307;BMP280;44116;50.884;4.768;2023-04-24T04:38:31;99670.0;;;7.3
58307;BMP280;44116;50.884;4.768;2023-04-24T04:40:31;99670.0;;;7.4
58307;BMP280;44116;50.884;4.768;2023-04-24T04:42:30;99670.0;;;7.4
58307;BMP280;44116;50.884;4.768;2023-04-24T04:46:30;99680.0;;;7.4
58307;BMP280;44116;50.884;4.768;2023-04-24T04:48:29;99680.0;;;7.4
58307;BMP280;44116;50.884;4.768;2023-04-24T04:50:29;99680.0;;;7.3
58307;BMP280;44116;50.884;4.768;2023-04-24T04:52:29;99690.0;;;7.4
58307;BMP280;44116;50.884;4.768;2023-04-24T04:54:29;99700.0;;;7.4
58307;BMP280;44116;50.884;4.768;2023-04-24T04:56:28;99700.0;;;7.4
58307;BMP280;44116;50.884;4.768;2023-04-24T05:00:27;99710.0;;;7.4
58307;BMP280;44116;50.884;4.768;2023-04-24T05:02:27;99720.0;;;7.4
58307;BMP280;44116;50.884;4.768;2023-04-24T05:04:27;99720.0;;;7.4
58307;BMP280;44116;50.884;4.768;2023-04-24T05:06:26;99730.0;;;7.4
58307;BMP280;44116;50.884;4.768;2023-04-24T05:08:26;99730.0;;;7.3
58307;BMP280;44116;50.884;4.768;2023-04-24T05:10:26;99740.0;;;7.3
58307;BMP280;44116;50.884;4.768;2023-04-24T05:12:25;99740.0;;;7.3
58307;BMP280;44116;50.884;4.768;2023-04-24T05:14:25;99740.0;;;7.4
58307;BMP280;44116;50.884;4.768;2023-04-24T05:16:25;99740.0;;;7.3
58307;BMP280;44116;50.884;4.768;2023-04-24T05:18:24;99750.0;;;7.3
58307;BMP280;44116;50.884;4.768;2023-04-24T05:20:24;99750.0;;;7.3
58307;BMP280;44116;50.884;4.768;2023-04-24T05:24:23;99780.0;;;7.3
58307;BMP280;44116;50.884;4.768;2023-04-24T05:26:23;99770.0;;;7.3
58307;BMP280;44116;50.884;4.768;2023-04-24T05:28:22;99770.0;;;7.3
58307;BMP280;44116;50.884;4.768;2023-04-24T05:30:22;99780.0;;;7.2
58307;BMP280;44116;50.884;4.768;2023-04-24T05:32:22;99770.0;;;7.2
58307;BMP280;44116;50.884;4.768;2023-04-24T05:34:21;99790.0;;;7.3
58307;BMP280;44116;50.884;4.768;2023-04-24T05:36:21;99790.0;;;7.3
58307;BMP280;44116;50.884;4.768;2023-04-24T05:38:21;99800.0;;;7.3
58307;BMP280;44116;50.884;4.768;2023-04-24T05:40:21;99790.0;;;7.2
58307;BMP280;44116;50.884;4.768;2023-04-24T05:42:20;99810.0;;;7.2
58307;BMP280;44116;50.884;4.768;2023-04-24T05:44:20;99810.0;;;7.2
58307;BMP280;44116;50.884;4.768;2023-04-24T05:46:19;99810.0;;;7.2
58307;BMP280;44116;50.884;4.768;2023-04-24T05:48:19;99820.0;;;7.2
58307;BMP280;44116;50.884;4.768;2023-04-24T05:50:19;99830.0;;;7.2
58307;BMP280;44116;50.884;4.768;2023-04-24T05:52:18;99830.0;;;7.1
58307;BMP280;44116;50.884;4.768;2023-04-24T05:56:18;99840.0;;;7.1
58307;BMP280;44116;50.884;4.768;2023-04-24T05:58:17;99850.0;;;7.1
58307;BMP280;44116;50.884;4.768;2023-04-24T06:00:17;99860.0;;;7.1
58307;BMP280;44116;50.884;4.768;2023-04-24T06:02:17;99850.0;;;7.1
58307;BMP280;44116;50.884;4.768;2023-04-24T06:08:15;99870.0;;;7.1
58307;BMP280;44116;50.884;4.768;2023-04-24T06:10:15;99870.0;;;7.1
58307;BMP280;44116;50.884;4.768;2023-04-24T06:12:15;99870.0;;;7.0
58307;BMP280;44116;50.884;4.768;2023-04-24T06:14:14;99880.0;;;7.1
58307;BMP280;44116;50.884;4.768;2023-04-24T06:16:14;99880.0;;;7.1
58307;BMP280;44116;50.884;4.768;2023-04-24T06:18:14;99880.0;;;7.0
58307;BMP280;44116;50.884;4.768;2023-04-24T06:20:13;99890.0;;;7.1
58307;BMP280;44116;50.884;4.768;2023-04-24T06:22:13;99890.0;;;7.1
58307;BMP280;44116;50.884;4.768;2023-04-24T06:24:13;99900.0;;;7.1
58307;BMP280;44116;50.884;4.768;2023-04-24T06:26:12;99900.0;;;7.1
58307;BMP280;44116;50.884;4.768;2023-04-24T06:28:12;99900.0;;;7.1
58307;BMP280;44116;50.884;4.768;2023-04-24T06:30:12;99910.0;;;7.1
58307;BMP280;44116;50.884;4.768;2023-04-24T06:32:11;99910.0;;;7.1
58307;BMP280;44116;50.884;4.768;2023-04-24T06:34:11;99910.0;;;7.0
58307;BMP280;44116;50.884;4.768;2023-04-24T06:36:11;99910.0;;;7.1
58307;BMP280;44116;50.884;4.768;2023-04-24T06:38:10;99920.0;;;7.1
58307;BMP280;44116;50.884;4.768;2023-04-24T06:40:13;99900.0;;;7.0
58307;BMP280;44116;50.884;4.768;2023-04-24T06:42:09;99870.0;;;7.1
58307;BMP280;44116;50.884;4.768;2023-04-24T06:44:09;99870.0;;;7.1
58307;BMP280;44116;50.884;4.768;2023-04-24T06:48:08;99890.0;;;7.1
58307;BMP280;44116;50.884;4.768;2023-04-24T06:50:08;99890.0;;;7.1
58307;BMP280;44116;50.884;4.768;2023-04-24T06:52:08;99900.0;;;7.1
58307;BMP280;44116;50.884;4.768;2023-04-24T06:54:07;99900.0;;;7.1
58307;BMP280;44116;50.884;4.768;2023-04-24T06:56:07;99910.0;;;7.1
58307;BMP280;44116;50.884;4.768;2023-04-24T06:58:06;99900.0;;;7.2
58307;BMP280;44116;50.884;4.768;2023-04-24T07:00:07;99910.0;;;7.2
58307;BMP280;44116;50.884;4.768;2023-04-24T07:02:06;99910.0;;;7.2
58307;BMP280;44116;50.884;4.768;2023-04-24T07:04:05;99910.0;;;7.2
58307;BMP280;44116;50.884;4.768;2023-04-24T07:06:05;99910.0;;;7.2
58307;BMP280;44116;50.884;4.768;2023-04-24T07:08:05;99920.0;;;7.2
58307;BMP280;44116;50.884;4.768;2023-04-24T07:10:05;99930.0;;;7.3
58307;BMP280;44116;50.884;4.768;2023-04-24T07:12:04;99930.0;;;7.2
58307;BMP280;44116;50.884;4.768;2023-04-24T07:14:04;99950.0;;;7.2
58307;BMP280;44116;50.884;4.768;2023-04-24T07:16:04;99940.0;;;7.3
58307;BMP280;44116;50.884;4.768;2023-04-24T07:18:03;99950.0;;;7.3
58307;BMP280;44116;50.884;4.768;2023-04-24T07:20:03;99960.0;;;7.3
58307;BMP280;44116;50.884;4.768;2023-04-24T07:22:02;99960.0;;;7.3
58307;BMP280;44116;50.884;4.768;2023-04-24T07:24:02;99980.0;;;7.3
58307;BMP280;44116;50.884;4.768;2023-04-24T07:26:01;99980.0;;;7.4
58307;BMP280;44116;50.884;4.768;2023-04-24T07:28:01;99980.0;;;7.3
58307;BMP280;44116;50.884;4.768;2023-04-24T07:30:01;99990.0;;;7.4
58307;BMP280;44116;50.884;4.768;2023-04-24T07:32:00;100000.0;;;7.4
58307;BMP280;44116;50.884;4.768;2023-04-24T07:34:00;100000.0;;;7.4
58307;BMP280;44116;50.884;4.768;2023-04-24T07:36:00;100000.0;;;7.4
58307;BMP280;44116;50.884;4.768;2023-04-24T07:37:59;100000.0;;;7.4
58307;BMP280;44116;50.884;4.768;2023-04-24T07:39:59;100020.0;;;7.4
58307;BMP280;44116;50.884;4.768;2023-04-24T07:43:58;100030.0;;;7.4
58307;BMP280;44116;50.884;4.768;2023-04-24T07:45:58;100040.0;;;7.5
58307;BMP280;44116;50.884;4.768;2023-04-24T07:47:57;100040.0;;;7.4
58307;BMP280;44116;50.884;4.768;2023-04-24T07:49:57;100040.0;;;7.4
58307;BMP280;44116;50.884;4.768;2023-04-24T07:51:57;100040.0;;;7.4
58307;BMP280;44116;50.884;4.768;2023-04-24T07:53:56;100050.0;;;7.5
58307;BMP280;44116;50.884;4.768;2023-04-24T07:55:56;100060.0;;;7.4
58307;BMP280;44116;50.884;4.768;2023-04-24T07:57:56;100060.0;;;7.4
58307;BMP280;44116;50.884;4.768;2023-04-24T07:59:55;100050.0;;;7.4
58307;BMP280;44116;50.884;4.768;2023-04-24T08:01:55;100060.0;;;7.4
58307;BMP280;44116;50.884;4.768;2023-04-24T08:03:55;100060.0;;;7.4
58307;BMP280;44116;50.884;4.768;2023-04-24T08:07:54;100070.0;;;7.4
58307;BMP280;44116;50.884;4.768;2023-04-24T08:09:54;100080.0;;;7.4
58307;BMP280;44116;50.884;4.768;2023-04-24T08:11:53;100080.0;;;7.4
58307;BMP280;44116;50.884;4.768;2023-04-24T08:13:53;100080.0;;;7.6
58307;BMP280;44116;50.884;4.768;2023-04-24T08:15:53;100080.0;;;7.6
58307;BMP280;44116;50.884;4.768;2023-04-24T08:17:52;100090.0;;;7.7
58307;BMP280;44116;50.884;4.768;2023-04-24T08:19:52;100090.0;;;7.8
58307;BMP280;44116;50.884;4.768;2023-04-24T08:23:51;100100.0;;;7.9
58307;BMP280;44116;50.884;4.768;2023-04-24T08:25:51;100090.0;;;8.0
58307;BMP280;44116;50.884;4.768;2023-04-24T08:27:51;100100.0;;;8.1
58307;BMP280;44116;50.884;4.768;2023-04-24T08:29:50;100110.0;;;8.0
58307;BMP280;44116;50.884;4.768;2023-04-24T08:31:50;100110.0;;;8.1
58307;BMP280;44116;50.884;4.768;2023-04-24T08:33:49;100120.0;;;8.2
58307;BMP280;44116;50.884;4.768;2023-04-24T08:35:49;100130.0;;;8.0
58307;BMP280;44116;50.884;4.768;2023-04-24T08:37:49;100130.0;;;8.1
58307;BMP280;44116;50.884;4.768;2023-04-24T08:39:48;100150.0;;;8.1
58307;BMP280;44116;50.884;4.768;2023-04-24T08:41:48;100130.0;;;8.1
58307;BMP280;44116;50.884;4.768;2023-04-24T08:43:50;100140.0;;;8.0
58307;BMP280;44116;50.884;4.768;2023-04-24T08:45:47;100140.0;;;8.0
58307;BMP280;44116;50.884;4.768;2023-04-24T08:47:47;100140.0;;;8.0
58307;BMP280;44116;50.884;4.768;2023-04-24T08:49:47;100150.0;;;8.1
58307;BMP280;44116;50.884;4.768;2023-04-24T08:51:46;100150.0;;;8.1
58307;BMP280;44116;50.884;4.768;2023-04-24T08:53:46;100150.0;;;8.3
58307;BMP280;44116;50.884;4.768;2023-04-24T08:55:47;100150.0;;;8.3
58307;BMP280;44116;50.884;4.768;2023-04-24T08:57:46;100150.0;;;8.5
58307;BMP280;44116;50.884;4.768;2023-04-24T08:59:45;100160.0;;;8.5
58307;BMP280;44116;50.884;4.768;2023-04-24T09:01:45;100150.0;;;8.7
58307;BMP280;44116;50.884;4.768;2023-04-24T09:03:45;100160.0;;;8.7
58307;BMP280;44116;50.884;4.768;2023-04-24T09:05:45;100160.0;;;8.8
58307;BMP280;44116;50.884;4.768;2023-04-24T09:07:44;100160.0;;;8.9
58307;BMP280;44116;50.884;4.768;2023-04-24T09:09:43;100160.0;;;8.8
58307;BMP280;44116;50.884;4.768;2023-04-24T09:11:43;100180.0;;;8.6
58307;BMP280;44116;50.884;4.768;2023-04-24T09:15:43;100180.0;;;8.6
58307;BMP280;44116;50.884;4.768;2023-04-24T09:17:43;100190.0;;;8.6
58307;BMP280;44116;50.884;4.768;2023-04-24T09:19:42;100190.0;;;8.5
58307;BMP280;44116;50.884;4.768;2023-04-24T09:21:41;100190.0;;;8.5
58307;BMP280;44116;50.884;4.768;2023-04-24T09:23:41;100200.0;;;8.4
58307;BMP280;44116;50.884;4.768;2023-04-24T09:25:41;100210.0;;;8.5
58307;BMP280;44116;50.884;4.768;2023-04-24T09:27:41;100200.0;;;8.5
58307;BMP280;44116;50.884;4.768;2023-04-24T09:29:47;100220.0;;;8.5
58307;BMP280;44116;50.884;4.768;2023-04-24T09:31:40;100220.0;;;8.8
58307;BMP280;44116;50.884;4.768;2023-04-24T09:33:40;100230.0;;;8.9
58307;BMP280;44116;50.884;4.768;2023-04-24T09:35:40;100220.0;;;8.9
58307;BMP280;44116;50.884;4.768;2023-04-24T09:37:39;100230.0;;;9.0
58307;BMP280;44116;50.884;4.768;2023-04-24T09:39:38;100230.0;;;9.2
58307;BMP280;44116;50.884;4.768;2023-04-24T09:41:43;100220.0;;;9.5
58307;BMP280;44116;50.884;4.768;2023-04-24T09:45:38;100240.0;;;9.5
58307;BMP280;44116;50.884;4.768;2023-04-24T09:47:37;100260.0;;;9.5
58307;BMP280;44116;50.884;4.768;2023-04-24T09:49:37;100250.0;;;9.4
58307;BMP280;44116;50.884;4.768;2023-04-24T09:51:37;100260.0;;;9.3
58307;BMP280;44116;50.884;4.768;2023-04-24T09:53:36;100260.0;;;9.3
58307;BMP280;44116;50.884;4.768;2023-04-24T09:57:40;100280.0;;;9.2
58307;BMP280;44116;50.884;4.768;2023-04-24T09:59:35;100280.0;;;9.2
58307;BMP280;44116;50.884;4.768;2023-04-24T10:01:35;100280.0;;;9.3
58307;BMP280;44116;50.884;4.768;2023-04-24T10:03:35;100290.0;;;9.2
58307;BMP280;44116;50.884;4.768;2023-04-24T10:05:35;100300.0;;;9.3
58307;BMP280;44116;50.884;4.768;2023-04-24T10:07:34;100300.0;;;9.4
58307;BMP280;44116;50.884;4.768;2023-04-24T10:09:34;100300.0;;;9.9
58307;BMP280;44116;50.884;4.768;2023-04-24T10:11:33;100300.0;;;9.9
58307;BMP280;44116;50.884;4.768;2023-04-24T10:13:33;100310.0;;;10.2
58307;BMP280;44116;50.884;4.768;2023-04-24T10:15:33;100310.0;;;10.1
58307;BMP280;44116;50.884;4.768;2023-04-24T10:17:33;100330.0;;;10.1
58307;BMP280;44116;50.884;4.768;2023-04-24T10:19:32;100360.0;;;9.9
58307;BMP280;44116;50.884;4.768;2023-04-24T10:21:32;100360.0;;;9.7
58307;BMP280;44116;50.884;4.768;2023-04-24T10:23:32;100360.0;;;9.6
58307;BMP280;44116;50.884;4.768;2023-04-24T10:25:32;100360.0;;;9.6
58307;BMP280;44116;50.884;4.768;2023-04-24T10:27:31;100370.0;;;9.5
58307;BMP280;44116;50.884;4.768;2023-04-24T10:29:31;100370.0;;;9.5
58307;BMP280;44116;50.884;4.768;2023-04-24T10:31:31;100380.0;;;9.6
58307;BMP280;44116;50.884;4.768;2023-04-24T10:33:30;100380.0;;;9.6
58307;BMP280;44116;50.884;4.768;2023-04-24T10:35:30;100380.0;;;9.6
58307;BMP280;44116;50.884;4.768;2023-04-24T10:37:29;100380.0;;;9.8
58307;BMP280;44116;50.884;4.768;2023-04-24T10:39:29;100380.0;;;9.9
58307;BMP280;44116;50.884;4.768;2023-04-24T10:41:30;100380.0;;;10.1
58307;BMP280;44116;50.884;4.768;2023-04-24T10:43:28;100390.0;;;10.2
58307;BMP280;44116;50.884;4.768;2023-04-24T10:45:28;100390.0;;;10.1
58307;BMP280;44116;50.884;4.768;2023-04-24T10:47:28;100390.0;;;10.1
58307;BMP280;44116;50.884;4.768;2023-04-24T10:53:27;100390.0;;;10.0
58307;BMP280;44116;50.884;4.768;2023-04-24T10:57:27;100390.0;;;10.0
58307;BMP280;44116;50.884;4.768;2023-04-24T10:59:27;100390.0;;;10.0
58307;BMP280;44116;50.884;4.768;2023-04-24T11:01:27;100400.0;;;10.1
58307;BMP280;44116;50.884;4.768;2023-04-24T11:03:26;100400.0;;;10.0
58307;BMP280;44116;50.884;4.768;2023-04-24T11:09:26;100410.0;;;9.9
58307;BMP280;44116;50.884;4.768;2023-04-24T11:11:24;100420.0;;;9.9
58307;BMP280;44116;50.884;4.768;2023-04-24T11:13:25;100420.0;;;9.8
58307;BMP280;44116;50.884;4.768;2023-04-24T11:15:24;100420.0;;;9.7
58307;BMP280;44116;50.884;4.768;2023-04-24T11:17:28;100420.0;;;9.8
58307;BMP280;44116;50.884;4.768;2023-04-24T11:21:23;100440.0;;;9.8
58307;BMP280;44116;50.884;4.768;2023-04-24T11:23:23;100430.0;;;9.7
58307;BMP280;44116;50.884;4.768;2023-04-24T11:25:22;100430.0;;;9.8
58307;BMP280;44116;50.884;4.768;2023-04-24T11:27:22;100430.0;;;9.8
58307;BMP280;44116;50.884;4.768;2023-04-24T11:29:22;100450.0;;;9.7
58307;BMP280;44116;50.884;4.768;2023-04-24T11:33:21;100440.0;;;10.0
58307;BMP280;44116;50.884;4.768;2023-04-24T11:35:22;100440.0;;;10.0
58307;BMP280;44116;50.884;4.768;2023-04-24T11:37:21;100450.0;;;10.0
58307;BMP280;44116;50.884;4.768;2023-04-24T11:39:20;100450.0;;;9.9
58307;BMP280;44116;50.884;4.768;2023-04-24T11:41:20;100450.0;;;9.8
58307;BMP280;44116;50.884;4.768;2023-04-24T11:43:19;100440.0;;;9.8
58307;BMP280;44116;50.884;4.768;2023-04-24T11:45:21;100440.0;;;9.9
58307;BMP280;44116;50.884;4.768;2023-04-24T11:47:19;100450.0;;;9.9
58307;BMP280;44116;50.884;4.768;2023-04-24T11:49:19;100450.0;;;9.8
58307;BMP280;44116;50.884;4.768;2023-04-24T11:51:18;100440.0;;;9.9
58307;BMP280;44116;50.884;4.768;2023-04-24T11:55:26;100440.0;;;10.1
58307;BMP280;44116;50.884;4.768;2023-04-24T11:57:18;100440.0;;;10.1
58307;BMP280;44116;50.884;4.768;2023-04-24T11:59:17;100450.0;;;10.1
58307;BMP280;44116;50.884;4.768;2023-04-24T12:01:17;100460.0;;;10.3
58307;BMP280;44116;50.884;4.768;2023-04-24T12:03:16;100460.0;;;10.3
58307;BMP280;44116;50.884;4.768;2023-04-24T12:05:19;100450.0;;;10.4
58307;BMP280;44116;50.884;4.768;2023-04-24T12:07:16;100450.0;;;10.4
58307;BMP280;44116;50.884;4.768;2023-04-24T12:09:16;100450.0;;;10.3
58307;BMP280;44116;50.884;4.768;2023-04-24T12:11:16;100450.0;;;10.4
58307;BMP280;44116;50.884;4.768;2023-04-24T12:13:15;100470.0;;;10.4
58307;BMP280;44116;50.884;4.768;2023-04-24T12:15:15;100460.0;;;10.4
58307;BMP280;44116;50.884;4.768;2023-04-24T12:17:14;100460.0;;;10.6
58307;BMP280;44116;50.884;4.768;2023-04-24T12:19:17;100460.0;;;10.6
58307;BMP280;44116;50.884;4.768;2023-04-24T12:21:14;100470.0;;;10.4
58307;BMP280;44116;50.884;4.768;2023-04-24T12:23:14;100450.0;;;10.5
58307;BMP280;44116;50.884;4.768;2023-04-24T12:25:14;100470.0;;;10.6
58307;BMP280;44116;50.884;4.768;2023-04-24T12:27:19;100470.0;;;10.9
58307;BMP280;44116;50.884;4.768;2023-04-24T12:29:19;100460.0;;;10.8
58307;BMP280;44116;50.884;4.768;2023-04-24T12:31:12;100460.0;;;10.8
58307;BMP280;44116;50.884;4.768;2023-04-24T12:33:12;100450.0;;;10.6
58307;BMP280;44116;50.884;4.768;2023-04-24T12:35:12;100460.0;;;11.0
58307;BMP280;44116;50.884;4.768;2023-04-24T12:37:12;100460.0;;;11.0
58307;BMP280;44116;50.884;4.768;2023-04-24T12:39:14;100460.0;;;11.1
58307;BMP280;44116;50.884;4.768;2023-04-24T12:41:11;100460.0;;;11.2
58307;BMP280;44116;50.884;4.768;2023-04-24T12:43:13;100460.0;;;11.7
58307;BMP280;44116;50.884;4.768;2023-04-24T12:45:11;100460.0;;;11.6
58307;BMP280;44116;50.884;4.768;2023-04-24T12:47:10;100460.0;;;12.0
58307;BMP280;44116;50.884;4.768;2023-04-24T12:49:10;100470.0;;;12.1
58307;BMP280;44116;50.884;4.768;2023-04-24T12:51:10;100440.0;;;11.6
58307;BMP280;44116;50.884;4.768;2023-04-24T12:53:10;100440.0;;;12.2
58307;BMP280;44116;50.884;4.768;2023-04-24T12:55:09;100460.0;;;12.3
58307;BMP280;44116;50.884;4.768;2023-04-24T12:57:09;100470.0;;;12.2
58307;BMP280;44116;50.884;4.768;2023-04-24T12:59:09;100470.0;;;12.2
58307;BMP280;44116;50.884;4.768;2023-04-24T13:01:08;100470.0;;;12.2
58307;BMP280;44116;50.884;4.768;2023-04-24T13:03:08;100470.0;;;12.1
58307;BMP280;44116;50.884;4.768;2023-04-24T13:07:08;100460.0;;;12.0